sensor_id;sensor_type;location;lat;lon;timestamp;pressure;altitude;pressure_sealevel;temperature;humidity
42847;BME280;28495;49.916;14.536;2023-03-15T00:00:56;96066.00;;;4.36;62.28
42847;BME280;28495;49.916;14.536;2023-03-15T00:06:16;96072.34;;;4.43;61.88
42847;BME280;28495;49.916;14.536;2023-03-15T00:11:37;96073.16;;;4.43;62.24
42847;BME280;28495;49.916;14.536;2023-03-15T00:16:58;96071.63;;;4.52;61.75
42847;BME280;28495;49.916;14.536;2023-03-15T00:22:18;96081.16;;;4.52;62.08
42847;BME280;28495;49.916;14.536;2023-03-15T00:27:42;96093.00;;;4.54;61.63
42847;BME280;28495;49.916;14.536;2023-03-15T00:33:03;96098.75;;;4.47;61.54
42847;BME280;28495;49.916;14.536;2023-03-15T00:38:25;96105.31;;;4.39;61.32
42847;BME280;28495;49.916;14.536;2023-03-15T00:43:46;96102.28;;;4.23;62.02
42847;BME280;28495;49.916;14.536;2023-03-15T00:49:07;96117.53;;;4.26;62.06
42847;BME280;28495;49.916;14.536;2023-03-15T00:54:28;96118.34;;;4.26;61.97
42847;BME280;28495;49.916;14.536;2023-03-15T00:59:49;96124.69;;;4.22;61.64
42847;BME280;28495;49.916;14.536;2023-03-15T01:05:13;96128.41;;;4.18;61.38
42847;BME280;28495;49.916;14.536;2023-03-15T01:10:34;96136.66;;;4.12;61.17
42847;BME280;28495;49.916;14.536;2023-03-15T01:15:55;96138.25;;;4.02;60.91
42847;BME280;28495;49.916;14.536;2023-03-15T01:21:16;96129.94;;;3.98;61.59
42847;BME280;28495;49.916;14.536;2023-03-15T01:26:39;96132.63;;;3.96;61.46
42847;BME280;28495;49.916;14.536;2023-03-15T01:32:00;96152.34;;;3.97;60.78
42847;BME280;28495;49.916;14.536;2023-03-15T01:37:21;96153.13;;;3.87;61.09
42847;BME280;28495;49.916;14.536;2023-03-15T01:42:52;96156.66;;;3.86;61.39
42847;BME280;28495;49.916;14.536;2023-03-15T01:48:13;96150.44;;;3.88;60.98
42847;BME280;28495;49.916;14.536;2023-03-15T01:53:34;96132.22;;;3.78;61.37
42847;BME280;28495;49.916;14.536;2023-03-15T01:58:58;96137.63;;;3.75;60.88
42847;BME280;28495;49.916;14.536;2023-03-15T02:04:26;96148.09;;;3.85;61.14
42847;BME280;28495;49.916;14.536;2023-03-15T02:10:09;96152.44;;;3.85;60.76
42847;BME280;28495;49.916;14.536;2023-03-15T02:15:32;96166.81;;;3.76;60.16
42847;BME280;28495;49.916;14.536;2023-03-15T02:26:55;96182.66;;;3.83;60.74
42847;BME280;28495;49.916;14.536;2023-03-15T02:32:17;96190.63;;;3.79;60.68
42847;BME280;28495;49.916;14.536;2023-03-15T02:37:38;96198.72;;;3.86;60.46
42847;BME280;28495;49.916;14.536;2023-03-15T02:43:04;96198.03;;;3.84;60.83
42847;BME280;28495;49.916;14.536;2023-03-15T02:48:27;96189.31;;;3.74;60.34
42847;BME280;28495;49.916;14.536;2023-03-15T02:53:49;96200.25;;;3.77;61.07
42847;BME280;28495;49.916;14.536;2023-03-15T02:59:12;96229.19;;;3.45;59.81
42847;BME280;28495;49.916;14.536;2023-03-15T03:04:33;96223.28;;;3.19;60.19
42847;BME280;28495;49.916;14.536;2023-03-15T03:09:55;96229.56;;;3.15;60.56
42847;BME280;28495;49.916;14.536;2023-03-15T03:15:16;96239.78;;;3.16;60.60
42847;BME280;28495;49.916;14.536;2023-03-15T03:20:37;96250.38;;;3.25;60.72
42847;BME280;28495;49.916;14.536;2023-03-15T03:26:00;96262.94;;;3.29;61.28
42847;BME280;28495;49.916;14.536;2023-03-15T03:31:24;96268.38;;;3.38;61.08
42847;BME280;28495;49.916;14.536;2023-03-15T03:36:47;96279.63;;;3.37;61.36
42847;BME280;28495;49.916;14.536;2023-03-15T03:42:19;96286.09;;;3.42;60.91
42847;BME280;28495;49.916;14.536;2023-03-15T03:47:41;96291.31;;;3.54;60.70
42847;BME280;28495;49.916;14.536;2023-03-15T03:53:01;96300.19;;;3.49;60.58
42847;BME280;28495;49.916;14.536;2023-03-15T03:58:26;96308.94;;;3.60;60.41
42847;BME280;28495;49.916;14.536;2023-03-15T04:03:52;96322.00;;;3.70;60.76
42847;BME280;28495;49.916;14.536;2023-03-15T04:09:17;96329.22;;;3.77;60.98
42847;BME280;28495;49.916;14.536;2023-03-15T04:14:40;96331.25;;;3.85;60.68
42847;BME280;28495;49.916;14.536;2023-03-15T04:20:04;96341.78;;;4.06;61.21
42847;BME280;28495;49.916;14.536;2023-03-15T04:25:34;96344.94;;;3.86;60.22
42847;BME280;28495;49.916;14.536;2023-03-15T04:31:05;96348.28;;;3.75;60.38
42847;BME280;28495;49.916;14.536;2023-03-15T04:36:53;96359.06;;;3.56;60.11
42847;BME280;28495;49.916;14.536;2023-03-15T04:42:31;96367.47;;;3.46;60.12
42847;BME280;28495;49.916;14.536;2023-03-15T04:48:10;96371.09;;;3.31;60.16
42847;BME280;28495;49.916;14.536;2023-03-15T04:53:39;96387.59;;;3.15;60.27
42847;BME280;28495;49.916;14.536;2023-03-15T04:59:03;96385.91;;;3.27;60.28
42847;BME280;28495;49.916;14.536;2023-03-15T05:04:42;96392.00;;;3.26;60.57
42847;BME280;28495;49.916;14.536;2023-03-15T05:10:15;96408.09;;;3.17;60.26
42847;BME280;28495;49.916;14.536;2023-03-15T05:15:46;96414.16;;;3.16;59.92
42847;BME280;28495;49.916;14.536;2023-03-15T05:21:19;96417.88;;;3.25;60.78
42847;BME280;28495;49.916;14.536;2023-03-15T05:26:52;96421.69;;;3.19;60.44
42847;BME280;28495;49.916;14.536;2023-03-15T05:32:26;96429.22;;;3.09;60.79
42847;BME280;28495;49.916;14.536;2023-03-15T05:38:15;96449.78;;;2.96;60.85
42847;BME280;28495;49.916;14.536;2023-03-15T05:44:02;96458.69;;;2.92;60.29
42847;BME280;28495;49.916;14.536;2023-03-15T05:49:23;96465.38;;;2.95;60.14
42847;BME280;28495;49.916;14.536;2023-03-15T05:55:02;96464.44;;;2.96;60.27
42847;BME280;28495;49.916;14.536;2023-03-15T06:00:42;96480.00;;;2.94;61.27
42847;BME280;28495;49.916;14.536;2023-03-15T06:06:16;96494.19;;;3.40;61.02
42847;BME280;28495;49.916;14.536;2023-03-15T06:11:37;96515.19;;;3.21;60.06
42847;BME280;28495;49.916;14.536;2023-03-15T06:16:59;96523.75;;;3.22;60.62
42847;BME280;28495;49.916;14.536;2023-03-15T06:22:21;96538.59;;;3.18;60.35
42847;BME280;28495;49.916;14.536;2023-03-15T06:27:51;96551.09;;;3.37;60.12
42847;BME280;28495;49.916;14.536;2023-03-15T06:33:13;96562.88;;;3.54;60.90
42847;BME280;28495;49.916;14.536;2023-03-15T06:38:33;96580.09;;;3.79;60.44
42847;BME280;28495;49.916;14.536;2023-03-15T06:43:54;96583.22;;;3.85;60.23
42847;BME280;28495;49.916;14.536;2023-03-15T06:49:16;96590.03;;;3.86;60.63
42847;BME280;28495;49.916;14.536;2023-03-15T06:54:36;96596.94;;;3.98;60.50
42847;BME280;28495;49.916;14.536;2023-03-15T06:59:57;96602.09;;;3.98;60.52
42847;BME280;28495;49.916;14.536;2023-03-15T07:05:18;96596.41;;;4.06;60.10
42847;BME280;28495;49.916;14.536;2023-03-15T07:10:39;96606.34;;;4.12;60.00
42847;BME280;28495;49.916;14.536;2023-03-15T07:16:00;96615.22;;;4.21;60.34
42847;BME280;28495;49.916;14.536;2023-03-15T07:21:20;96618.81;;;4.18;59.77
42847;BME280;28495;49.916;14.536;2023-03-15T07:26:41;96636.66;;;4.08;60.29
42847;BME280;28495;49.916;14.536;2023-03-15T07:32:03;96635.03;;;4.33;60.34
42847;BME280;28495;49.916;14.536;2023-03-15T07:37:25;96638.81;;;4.53;60.15
42847;BME280;28495;49.916;14.536;2023-03-15T07:42:46;96650.59;;;4.57;60.04
42847;BME280;28495;49.916;14.536;2023-03-15T07:48:06;96648.22;;;4.67;59.31
42847;BME280;28495;49.916;14.536;2023-03-15T07:53:27;96661.25;;;4.53;59.24
42847;BME280;28495;49.916;14.536;2023-03-15T07:58:48;96673.41;;;4.64;59.66
42847;BME280;28495;49.916;14.536;2023-03-15T08:04:09;96653.66;;;4.76;59.03
42847;BME280;28495;49.916;14.536;2023-03-15T08:09:30;96663.06;;;4.77;59.17
42847;BME280;28495;49.916;14.536;2023-03-15T08:14:53;96660.53;;;4.88;59.23
42847;BME280;28495;49.916;14.536;2023-03-15T08:20:15;96654.03;;;4.82;58.73
42847;BME280;28495;49.916;14.536;2023-03-15T08:25:37;96659.53;;;4.91;58.51
42847;BME280;28495;49.916;14.536;2023-03-15T08:31:05;96663.34;;;4.85;58.60
42847;BME280;28495;49.916;14.536;2023-03-15T08:36:26;96676.03;;;4.88;58.62
42847;BME280;28495;49.916;14.536;2023-03-15T08:41:47;96676.03;;;4.88;58.46
42847;BME280;28495;49.916;14.536;2023-03-15T08:47:10;96671.38;;;5.06;58.12
42847;BME280;28495;49.916;14.536;2023-03-15T08:52:31;96666.97;;;5.19;58.20
42847;BME280;28495;49.916;14.536;2023-03-15T08:57:52;96669.41;;;5.34;57.60
42847;BME280;28495;49.916;14.536;2023-03-15T09:03:13;96663.91;;;5.39;57.22
42847;BME280;28495;49.916;14.536;2023-03-15T09:08:36;96669.22;;;5.48;57.03
42847;BME280;28495;49.916;14.536;2023-03-15T09:13:56;96668.56;;;5.58;56.50
42847;BME280;28495;49.916;14.536;2023-03-15T09:19:17;96678.25;;;5.67;56.03
42847;BME280;28495;49.916;14.536;2023-03-15T09:24:38;96685.75;;;5.70;56.06
42847;BME280;28495;49.916;14.536;2023-03-15T09:30:00;96683.84;;;5.85;55.85
42847;BME280;28495;49.916;14.536;2023-03-15T09:35:21;96679.47;;;5.86;55.17
42847;BME280;28495;49.916;14.536;2023-03-15T09:40:43;96679.66;;;5.71;55.16
42847;BME280;28495;49.916;14.536;2023-03-15T09:51:45;96680.88;;;5.78;54.85
42847;BME280;28495;49.916;14.536;2023-03-15T09:57:13;96689.22;;;5.82;55.08
42847;BME280;28495;49.916;14.536;2023-03-15T10:02:41;96684.78;;;5.84;54.97
42847;BME280;28495;49.916;14.536;2023-03-15T10:08:09;96683.72;;;5.98;55.36
42847;BME280;28495;49.916;14.536;2023-03-15T10:19:31;96679.72;;;6.30;54.38
42847;BME280;28495;49.916;14.536;2023-03-15T10:25:01;96683.38;;;6.38;54.17
42847;BME280;28495;49.916;14.536;2023-03-15T10:30:29;96678.38;;;6.13;53.51
42847;BME280;28495;49.916;14.536;2023-03-15T10:35:51;96674.84;;;6.02;53.82
42847;BME280;28495;49.916;14.536;2023-03-15T10:41:42;96687.28;;;5.97;54.41
42847;BME280;28495;49.916;14.536;2023-03-15T10:47:04;96677.44;;;6.14;53.99
42847;BME280;28495;49.916;14.536;2023-03-15T10:52:43;96677.63;;;6.35;54.13
42847;BME280;28495;49.916;14.536;2023-03-15T10:58:19;96676.44;;;6.73;54.24
42847;BME280;28495;49.916;14.536;2023-03-15T11:03:40;96670.91;;;6.78;53.75
42847;BME280;28495;49.916;14.536;2023-03-15T11:15:09;96679.00;;;6.96;53.75
42847;BME280;28495;49.916;14.536;2023-03-15T11:20:35;96674.91;;;6.82;53.06
42847;BME280;28495;49.916;14.536;2023-03-15T11:25:58;96664.09;;;6.54;53.18
42847;BME280;28495;49.916;14.536;2023-03-15T11:31:21;96657.59;;;6.60;53.41
42847;BME280;28495;49.916;14.536;2023-03-15T11:36:45;96666.44;;;6.57;53.01
42847;BME280;28495;49.916;14.536;2023-03-15T11:42:21;96662.44;;;6.64;52.90
42847;BME280;28495;49.916;14.536;2023-03-15T11:47:49;96666.56;;;6.55;53.01
42847;BME280;28495;49.916;14.536;2023-03-15T11:53:13;96674.22;;;6.57;53.26
42847;BME280;28495;49.916;14.536;2023-03-15T11:58:40;96666.44;;;6.57;53.26
42847;BME280;28495;49.916;14.536;2023-03-15T12:21:08;96669.72;;;6.36;53.44
42847;BME280;28495;49.916;14.536;2023-03-15T12:37:30;96663.69;;;6.24;53.79
42847;BME280;28495;49.916;14.536;2023-03-15T12:43:00;96667.50;;;6.32;54.14
42847;BME280;28495;49.916;14.536;2023-03-15T12:48:21;96682.31;;;6.30;54.03
42847;BME280;28495;49.916;14.536;2023-03-15T12:53:44;96685.94;;;6.16;54.65
42847;BME280;28495;49.916;14.536;2023-03-15T13:05:30;96685.00;;;6.17;55.06
42847;BME280;28495;49.916;14.536;2023-03-15T13:11:20;96680.31;;;6.22;55.16
42847;BME280;28495;49.916;14.536;2023-03-15T13:16:49;96686.78;;;6.28;55.15
42847;BME280;28495;49.916;14.536;2023-03-15T13:44:02;96686.22;;;6.47;55.24
42847;BME280;28495;49.916;14.536;2023-03-15T13:49:32;96682.09;;;6.55;54.44
42847;BME280;28495;49.916;14.536;2023-03-15T13:54:54;96682.69;;;6.48;54.60
42847;BME280;28495;49.916;14.536;2023-03-15T14:00:17;96684.78;;;6.31;54.04
42847;BME280;28495;49.916;14.536;2023-03-15T14:05:45;96691.25;;;6.14;54.36
42847;BME280;28495;49.916;14.536;2023-03-15T14:11:16;96712.56;;;5.93;53.73
42847;BME280;28495;49.916;14.536;2023-03-15T14:16:43;96742.22;;;5.65;54.08
42847;BME280;28495;49.916;14.536;2023-03-15T14:22:23;96739.38;;;5.19;54.32
42847;BME280;28495;49.916;14.536;2023-03-15T14:27:44;96742.88;;;5.18;55.60
42847;BME280;28495;49.916;14.536;2023-03-15T14:33:05;96735.06;;;5.31;55.45
42847;BME280;28495;49.916;14.536;2023-03-15T14:38:34;96740.47;;;5.53;55.46
42847;BME280;28495;49.916;14.536;2023-03-15T14:43:55;96733.81;;;5.61;55.71
42847;BME280;28495;49.916;14.536;2023-03-15T14:49:22;96744.66;;;5.42;55.84
42847;BME280;28495;49.916;14.536;2023-03-15T14:54:48;96750.88;;;5.40;56.34
42847;BME280;28495;49.916;14.536;2023-03-15T15:00:12;96765.63;;;5.26;57.13
42847;BME280;28495;49.916;14.536;2023-03-15T15:05:36;96777.56;;;5.03;57.62
42847;BME280;28495;49.916;14.536;2023-03-15T15:10:57;96769.72;;;4.79;58.37
42847;BME280;28495;49.916;14.536;2023-03-15T15:16:18;96766.91;;;4.56;58.76
42847;BME280;28495;49.916;14.536;2023-03-15T15:21:40;96771.25;;;4.30;58.88
42847;BME280;28495;49.916;14.536;2023-03-15T15:27:01;96784.19;;;4.02;59.44
42847;BME280;28495;49.916;14.536;2023-03-15T15:32:22;96794.50;;;4.02;60.75
42847;BME280;28495;49.916;14.536;2023-03-15T15:37:45;96807.47;;;3.88;59.99
42847;BME280;28495;49.916;14.536;2023-03-15T15:43:09;96810.94;;;4.67;64.42
42847;BME280;28495;49.916;14.536;2023-03-15T15:48:31;96814.22;;;5.08;61.36
42847;BME280;28495;49.916;14.536;2023-03-15T15:53:54;96808.25;;;4.82;60.82
42847;BME280;28495;49.916;14.536;2023-03-15T15:59:17;96804.72;;;4.57;60.70
42847;BME280;28495;49.916;14.536;2023-03-15T16:04:38;96811.13;;;4.51;60.52
42847;BME280;28495;49.916;14.536;2023-03-15T16:10:02;96808.06;;;4.19;60.55
42847;BME280;28495;49.916;14.536;2023-03-15T16:15:23;96821.50;;;4.24;60.86
42847;BME280;28495;49.916;14.536;2023-03-15T16:20:43;96842.19;;;4.09;60.99
42847;BME280;28495;49.916;14.536;2023-03-15T16:26:04;96836.94;;;3.84;61.33
42847;BME280;28495;49.916;14.536;2023-03-15T16:31:25;96839.97;;;3.90;61.93
42847;BME280;28495;49.916;14.536;2023-03-15T16:36:46;96853.25;;;4.11;61.37
42847;BME280;28495;49.916;14.536;2023-03-15T16:42:13;96853.75;;;4.04;61.70
42847;BME280;28495;49.916;14.536;2023-03-15T16:47:34;96850.53;;;4.00;62.10
42847;BME280;28495;49.916;14.536;2023-03-15T16:52:57;96857.53;;;3.98;62.39
42847;BME280;28495;49.916;14.536;2023-03-15T16:58:19;96871.28;;;3.99;61.96
42847;BME280;28495;49.916;14.536;2023-03-15T17:03:40;96870.41;;;3.85;61.77
42847;BME280;28495;49.916;14.536;2023-03-15T17:09:12;96894.81;;;3.79;62.75
42847;BME280;28495;49.916;14.536;2023-03-15T17:14:34;96915.28;;;3.68;62.16
42847;BME280;28495;49.916;14.536;2023-03-15T17:19:55;96935.09;;;3.24;62.33
42847;BME280;28495;49.916;14.536;2023-03-15T17:25:16;96953.59;;;2.86;62.86
42847;BME280;28495;49.916;14.536;2023-03-15T17:30:37;96963.28;;;2.66;62.66
42847;BME280;28495;49.916;14.536;2023-03-15T17:35:58;96967.94;;;2.59;63.16
42847;BME280;28495;49.916;14.536;2023-03-15T17:41:21;96959.25;;;2.46;63.23
42847;BME280;28495;49.916;14.536;2023-03-15T17:46:42;96955.50;;;3.27;66.64
42847;BME280;28495;49.916;14.536;2023-03-15T17:52:08;96963.16;;;3.14;63.77
42847;BME280;28495;49.916;14.536;2023-03-15T17:57:30;96974.25;;;3.00;63.33
42847;BME280;28495;49.916;14.536;2023-03-15T18:02:51;96975.63;;;3.06;63.80
42847;BME280;28495;49.916;14.536;2023-03-15T18:08:17;96977.41;;;3.05;63.40
42847;BME280;28495;49.916;14.536;2023-03-15T18:13:39;96991.78;;;3.10;62.81
42847;BME280;28495;49.916;14.536;2023-03-15T18:19:00;96990.66;;;3.14;62.74
42847;BME280;28495;49.916;14.536;2023-03-15T18:24:21;96992.16;;;3.18;62.64
42847;BME280;28495;49.916;14.536;2023-03-15T18:29:42;97002.25;;;3.07;62.64
42847;BME280;28495;49.916;14.536;2023-03-15T18:35:02;97006.47;;;3.08;62.67
42847;BME280;28495;49.916;14.536;2023-03-15T18:40:26;97014.41;;;3.19;62.46
42847;BME280;28495;49.916;14.536;2023-03-15T18:45:48;97017.91;;;3.18;62.29
42847;BME280;28495;49.916;14.536;2023-03-15T18:51:11;97026.97;;;3.25;62.21
42847;BME280;28495;49.916;14.536;2023-03-15T18:56:32;97030.66;;;3.05;61.75
42847;BME280;28495;49.916;14.536;2023-03-15T19:01:54;97029.69;;;3.08;62.26
42847;BME280;28495;49.916;14.536;2023-03-15T19:07:14;97034.50;;;2.98;61.96
42847;BME280;28495;49.916;14.536;2023-03-15T19:12:35;97040.34;;;2.85;62.15
42847;BME280;28495;49.916;14.536;2023-03-15T19:17:57;97049.09;;;2.67;62.18
42847;BME280;28495;49.916;14.536;2023-03-15T19:23:19;97059.56;;;2.64;62.82
42847;BME280;28495;49.916;14.536;2023-03-15T19:28:40;97059.97;;;2.56;62.58
42847;BME280;28495;49.916;14.536;2023-03-15T19:34:01;97062.22;;;2.62;62.91
42847;BME280;28495;49.916;14.536;2023-03-15T19:39:22;97068.69;;;2.69;61.99
42847;BME280;28495;49.916;14.536;2023-03-15T19:44:42;97077.47;;;2.65;61.74
42847;BME280;28495;49.916;14.536;2023-03-15T19:50:04;97078.31;;;2.82;61.83
42847;BME280;28495;49.916;14.536;2023-03-15T19:55:25;97085.03;;;3.00;61.75
42847;BME280;28495;49.916;14.536;2023-03-15T20:00:53;97095.97;;;3.20;62.39
42847;BME280;28495;49.916;14.536;2023-03-15T20:06:16;97098.88;;;3.30;61.75
42847;BME280;28495;49.916;14.536;2023-03-15T20:11:37;97105.44;;;3.19;61.50
42847;BME280;28495;49.916;14.536;2023-03-15T20:16:58;97103.97;;;3.15;61.05
42847;BME280;28495;49.916;14.536;2023-03-15T20:22:19;97106.06;;;3.09;60.88
42847;BME280;28495;49.916;14.536;2023-03-15T20:27:40;97116.47;;;2.91;60.61
42847;BME280;28495;49.916;14.536;2023-03-15T20:33:01;97117.13;;;2.79;61.31
42847;BME280;28495;49.916;14.536;2023-03-15T20:38:22;97119.88;;;2.76;60.70
42847;BME280;28495;49.916;14.536;2023-03-15T20:43:42;97128.25;;;2.63;60.57
42847;BME280;28495;49.916;14.536;2023-03-15T20:49:03;97130.66;;;2.50;60.26
42847;BME280;28495;49.916;14.536;2023-03-15T20:54:24;97136.19;;;2.42;60.40
42847;BME280;28495;49.916;14.536;2023-03-15T20:59:45;97145.22;;;2.34;60.59
42847;BME280;28495;49.916;14.536;2023-03-15T21:05:07;97146.38;;;2.28;61.24
42847;BME280;28495;49.916;14.536;2023-03-15T21:10:28;97156.44;;;2.33;60.49
42847;BME280;28495;49.916;14.536;2023-03-15T21:15:51;97160.91;;;2.29;61.11
42847;BME280;28495;49.916;14.536;2023-03-15T21:21:12;97162.72;;;2.27;61.20
42847;BME280;28495;49.916;14.536;2023-03-15T21:26:34;97164.41;;;2.10;60.93
42847;BME280;28495;49.916;14.536;2023-03-15T21:31:55;97175.84;;;2.05;60.55
42847;BME280;28495;49.916;14.536;2023-03-15T21:37:16;97178.59;;;1.84;60.80
42847;BME280;28495;49.916;14.536;2023-03-15T21:42:37;97184.63;;;1.83;61.36
42847;BME280;28495;49.916;14.536;2023-03-15T21:47:58;97189.34;;;1.75;61.47
42847;BME280;28495;49.916;14.536;2023-03-15T21:53:20;97187.81;;;1.71;61.57
42847;BME280;28495;49.916;14.536;2023-03-15T21:58:41;97192.53;;;1.80;61.90
42847;BME280;28495;49.916;14.536;2023-03-15T22:04:02;97201.06;;;1.80;61.91
42847;BME280;28495;49.916;14.536;2023-03-15T22:09:22;97198.84;;;1.73;61.50
42847;BME280;28495;49.916;14.536;2023-03-15T22:14:43;97205.22;;;1.65;61.21
42847;BME280;28495;49.916;14.536;2023-03-15T22:20:11;97206.31;;;1.60;61.42
42847;BME280;28495;49.916;14.536;2023-03-15T22:25:37;97216.69;;;1.58;61.14
42847;BME280;28495;49.916;14.536;2023-03-15T22:30:58;97222.44;;;1.63;61.22
42847;BME280;28495;49.916;14.536;2023-03-15T22:36:19;97229.25;;;1.64;61.27
42847;BME280;28495;49.916;14.536;2023-03-15T22:41:40;97224.78;;;1.68;61.29
42847;BME280;28495;49.916;14.536;2023-03-15T22:47:01;97232.00;;;1.79;61.29
42847;BME280;28495;49.916;14.536;2023-03-15T22:52:21;97226.69;;;1.82;61.72
42847;BME280;28495;49.916;14.536;2023-03-15T22:57:42;97229.03;;;1.69;61.52
42847;BME280;28495;49.916;14.536;2023-03-15T23:03:03;97235.00;;;1.70;61.68
42847;BME280;28495;49.916;14.536;2023-03-15T23:08:24;97245.13;;;1.73;61.65
42847;BME280;28495;49.916;14.536;2023-03-15T23:13:44;97245.06;;;1.74;61.57
42847;BME280;28495;49.916;14.536;2023-03-15T23:19:08;97250.28;;;1.73;61.38
42847;BME280;28495;49.916;14.536;2023-03-15T23:24:30;97258.91;;;1.72;61.31
42847;BME280;28495;49.916;14.536;2023-03-15T23:29:53;97258.75;;;1.75;61.20
42847;BME280;28495;49.916;14.536;2023-03-15T23:35:15;97263.53;;;1.82;61.21
42847;BME280;28495;49.916;14.536;2023-03-15T23:40:35;97263.78;;;1.95;61.21
42847;BME280;28495;49.916;14.536;2023-03-15T23:45:58;97268.16;;;1.93;60.79
42847;BME280;28495;49.916;14.536;2023-03-15T23:51:19;97275.53;;;2.01;61.29
42847;BME280;28495;49.916;14.536;2023-03-15T23:56:41;97279.66;;;1.86;60.68
